createdAt,value
2024-03-11T00:00:20.899Z,8.00
2024-03-11T00:00:37.508Z,8.00
2024-03-11T00:01:02.726Z,8.00
2024-03-11T00:01:34.748Z,8.00
2024-03-11T00:02:07.190Z,8.00
2024-03-11T00:02:42.852Z,8.00
2024-03-11T00:03:14.894Z,8.00
2024-03-11T00:03:37.017Z,8.00
2024-03-11T00:04:14.820Z,8.00
2024-03-11T00:04:37.725Z,8.00
2024-03-11T00:05:00.352Z,8.00
2024-03-11T00:05:34.883Z,8.00
2024-03-11T00:06:06.633Z,8.00
2024-03-11T00:06:38.395Z,8.00
2024-03-11T00:07:15.951Z,8.00
2024-03-11T00:07:42.751Z,8.00
2024-03-11T00:08:14.581Z,8.00
2024-03-11T00:08:37.461Z,8.00
2024-03-11T00:09:04.119Z,8.00
2024-03-11T00:09:35.957Z,7.88
2024-03-11T00:10:24.042Z,7.88
2024-03-11T00:11:10.681Z,8.00
2024-03-11T00:11:42.688Z,8.00
2024-03-11T00:12:15.871Z,8.00
2024-03-11T00:12:42.702Z,8.00
2024-03-11T00:13:00.843Z,8.00
2024-03-11T00:13:34.768Z,8.00
2024-03-11T00:14:06.919Z,8.00
2024-03-11T00:14:38.738Z,8.00
2024-03-11T00:15:10.732Z,8.00
2024-03-11T00:15:43.825Z,8.00
2024-03-11T00:16:14.608Z,8.00
2024-03-11T00:16:38.932Z,8.00
2024-03-11T00:17:01.268Z,8.00
2024-03-11T00:17:34.777Z,8.00
2024-03-11T00:18:10.912Z,8.00
2024-03-11T00:18:38.569Z,8.00
2024-03-11T00:19:10.441Z,8.00
2024-03-11T00:19:43.701Z,8.00
2024-03-11T00:20:15.929Z,8.00
2024-03-11T00:20:37.011Z,8.00
2024-03-11T00:21:00.842Z,8.00
2024-03-11T00:21:34.480Z,8.00
2024-03-11T00:22:07.793Z,8.00
2024-03-11T00:22:33.692Z,8.00
2024-03-11T00:23:11.145Z,8.11
2024-03-11T00:23:47.431Z,8.11
2024-03-11T00:24:14.770Z,8.11
2024-03-11T00:24:37.613Z,8.11
2024-03-11T00:25:00.639Z,8.11
2024-03-11T00:25:43.209Z,8.11
2024-03-11T00:26:09.948Z,8.11
2024-03-11T00:26:33.687Z,8.11
2024-03-11T00:27:15.153Z,8.11
2024-03-11T00:27:42.527Z,8.11
2024-03-11T00:28:14.511Z,8.11
2024-03-11T00:28:37.818Z,8.11
2024-03-11T00:29:00.378Z,8.00
2024-03-11T00:29:40.002Z,8.00
2024-03-11T00:30:09.274Z,8.00
2024-03-11T00:30:43.888Z,8.00
2024-03-11T00:31:12.821Z,8.00
2024-03-11T00:31:42.642Z,8.00
2024-03-11T00:32:15.931Z,8.00
2024-03-11T00:32:41.800Z,8.00
2024-03-11T00:33:00.084Z,8.00
2024-03-11T00:33:34.465Z,8.00
2024-03-11T00:34:06.605Z,8.00
2024-03-11T00:34:38.504Z,8.00
2024-03-11T00:35:10.720Z,8.00
2024-03-11T00:35:43.798Z,8.00
2024-03-11T00:36:15.899Z,8.00
2024-03-11T00:36:40.324Z,8.00
2024-03-11T00:37:01.485Z,8.00
2024-03-11T00:37:31.197Z,8.00
2024-03-11T00:38:09.857Z,8.00
2024-03-11T00:38:38.877Z,8.00
2024-03-11T00:39:11.780Z,8.11
2024-03-11T00:39:43.648Z,8.11
2024-03-11T00:40:16.556Z,8.11
2024-03-11T00:40:39.372Z,8.11
2024-03-11T00:41:01.988Z,8.11
2024-03-11T00:41:38.776Z,8.11
2024-03-11T00:42:01.252Z,8.11
2024-03-11T00:42:43.352Z,8.11
2024-03-11T00:43:11.743Z,8.11
2024-03-11T00:43:41.306Z,8.11
2024-03-11T00:44:30.733Z,8.11
2024-03-11T00:45:03.977Z,8.11
2024-03-11T00:45:39.296Z,8.11
2024-03-11T00:46:45.825Z,8.11
2024-03-11T00:47:06.992Z,8.11
2024-03-11T00:47:43.573Z,8.00
2024-03-11T00:48:30.586Z,8.00
2024-03-11T00:49:41.758Z,8.00
2024-03-11T00:50:46.020Z,8.00
2024-03-11T00:51:49.935Z,8.00
2024-03-11T00:52:41.802Z,8.00
2024-03-11T00:53:19.876Z,8.00
2024-03-11T00:54:44.688Z,8.00
2024-03-11T00:55:53.595Z,8.00
2024-03-11T00:56:35.407Z,8.00
2024-03-11T00:57:41.854Z,8.00
2024-03-11T00:58:48.558Z,8.00
2024-03-11T00:59:48.715Z,8.00
2024-03-11T01:00:13.959Z,8.00
2024-03-11T01:00:42.505Z,8.00
2024-03-11T01:01:18.683Z,8.00
2024-03-11T01:02:06.619Z,8.00
2024-03-11T01:02:40.000Z,8.00
2024-03-11T01:03:14.912Z,8.00
2024-03-11T01:04:40.366Z,8.00
2024-03-11T01:05:42.595Z,8.00
2024-03-11T01:06:51.885Z,8.00
2024-03-11T01:07:48.164Z,8.00
2024-03-11T01:08:40.303Z,8.00
2024-03-11T01:09:19.253Z,8.00
2024-03-11T01:09:43.170Z,8.00
2024-03-11T01:10:09.017Z,8.00
2024-03-11T01:10:41.232Z,8.00
2024-03-11T01:11:28.985Z,8.00
2024-03-11T01:11:50.642Z,8.00
2024-03-11T01:12:15.509Z,8.00
2024-03-11T01:12:41.900Z,8.00
2024-03-11T01:12:59.633Z,8.00
2024-03-11T01:13:34.860Z,8.00
2024-03-11T01:14:06.581Z,8.00
2024-03-11T01:14:38.780Z,8.00
2024-03-11T01:15:14.999Z,8.00
2024-03-11T01:15:43.338Z,8.00
2024-03-11T01:16:21.420Z,8.00
2024-03-11T01:16:43.701Z,8.00
2024-03-11T01:17:22.877Z,8.00
2024-03-11T01:17:45.767Z,8.00
2024-03-11T01:18:03.625Z,8.00
2024-03-11T01:18:39.826Z,8.00
2024-03-11T01:19:10.227Z,8.00
2024-03-11T01:19:42.868Z,8.00
2024-03-11T01:20:18.894Z,8.00
2024-03-11T01:20:40.035Z,8.00
2024-03-11T01:21:02.444Z,8.00
2024-03-11T01:21:34.328Z,8.00
2024-03-11T01:22:06.478Z,8.00
2024-03-11T01:22:33.727Z,8.00
2024-03-11T01:23:10.993Z,8.11
2024-03-11T01:24:15.852Z,8.11
2024-03-11T01:24:38.669Z,8.11
2024-03-11T01:25:01.554Z,8.11
2024-03-11T01:25:35.300Z,8.11
2024-03-11T01:26:11.514Z,8.11
2024-03-11T01:26:39.448Z,8.11
2024-03-11T01:27:12.074Z,8.11
2024-03-11T01:27:49.672Z,8.11
2024-03-11T01:28:12.200Z,8.11
2024-03-11T01:28:35.318Z,8.11
2024-03-11T01:28:57.527Z,8.11
2024-03-11T01:29:39.990Z,8.11
2024-03-11T01:30:08.177Z,8.11
2024-03-11T01:30:42.804Z,8.11
2024-03-11T01:31:11.874Z,8.11
2024-03-11T01:31:42.574Z,8.11
2024-03-11T01:32:39.208Z,8.11
2024-03-11T01:33:02.577Z,8.11
2024-03-11T01:33:34.442Z,8.11
2024-03-11T01:34:06.403Z,8.11
2024-03-11T01:34:38.583Z,8.11
2024-03-11T01:35:07.795Z,8.11
2024-03-11T01:35:42.788Z,8.11
2024-03-11T01:36:17.336Z,8.11
2024-03-11T01:36:40.028Z,8.11
2024-03-11T01:37:02.529Z,8.11
2024-03-11T01:37:42.004Z,8.11
2024-03-11T01:38:07.499Z,8.00
2024-03-11T01:38:39.179Z,8.00
2024-03-11T01:39:10.535Z,8.00
2024-03-11T01:39:45.089Z,8.00
2024-03-11T01:40:15.957Z,8.00
2024-03-11T01:40:37.350Z,8.00
2024-03-11T01:41:02.791Z,8.00
2024-03-11T01:41:34.907Z,8.00
2024-03-11T01:42:07.237Z,8.00
2024-03-11T01:42:39.929Z,8.00
2024-03-11T01:43:10.552Z,8.00
2024-03-11T01:43:41.627Z,8.00
2024-03-11T01:44:15.030Z,8.00
2024-03-11T01:44:37.907Z,8.00
2024-03-11T01:45:00.362Z,8.00
2024-03-11T01:45:41.755Z,8.00
2024-03-11T01:46:06.549Z,8.00
2024-03-11T01:46:38.949Z,8.00
2024-03-11T01:47:16.134Z,8.00
2024-03-11T01:47:46.486Z,8.00
2024-03-11T01:48:08.909Z,8.00
2024-03-11T01:48:34.214Z,7.88
2024-03-11T01:48:56.533Z,7.88
2024-03-11T01:49:40.118Z,7.88
2024-03-11T01:50:07.861Z,7.88
2024-03-11T01:50:36.742Z,7.88
2024-03-11T01:51:10.936Z,7.88
2024-03-11T01:51:42.738Z,7.88
2024-03-11T01:52:15.284Z,7.88
2024-03-11T01:52:39.420Z,7.88
2024-03-11T01:53:01.523Z,7.88
2024-03-11T01:53:38.987Z,7.88
2024-03-11T01:54:06.598Z,7.88
2024-03-11T01:54:40.070Z,7.88
2024-03-11T01:55:12.696Z,7.88
2024-03-11T01:55:42.827Z,7.77
2024-03-11T01:56:18.413Z,7.77
2024-03-11T01:56:47.347Z,7.77
2024-03-11T01:57:20.615Z,7.77
2024-03-11T01:57:46.495Z,7.77
2024-03-11T01:58:05.936Z,7.77
2024-03-11T01:58:47.032Z,7.77
2024-03-11T01:59:11.002Z,7.77
2024-03-11T01:59:44.816Z,7.77
2024-03-11T02:00:19.307Z,7.77
2024-03-11T02:00:38.740Z,7.77
2024-03-11T02:01:00.137Z,7.77
2024-03-11T02:01:35.954Z,7.77
2024-03-11T02:02:08.028Z,7.77
2024-03-11T02:02:40.718Z,7.77
2024-03-11T02:03:11.432Z,7.77
2024-03-11T02:03:44.923Z,7.77
2024-03-11T02:04:15.558Z,7.77
2024-03-11T02:04:38.038Z,7.77
2024-03-11T02:05:00.620Z,7.72
2024-03-11T02:05:35.783Z,7.72
2024-03-11T02:06:06.562Z,7.72
2024-03-11T02:06:40.593Z,7.72
2024-03-11T02:07:11.119Z,7.72
2024-03-11T02:07:49.245Z,7.72
2024-03-11T02:08:11.634Z,7.72
2024-03-11T02:08:34.919Z,7.72
2024-03-11T02:09:01.846Z,7.72
2024-03-11T02:09:34.732Z,7.72
2024-03-11T02:10:06.868Z,7.72
2024-03-11T02:10:38.430Z,7.72
2024-03-11T02:11:11.890Z,7.72
2024-03-11T02:11:43.870Z,7.72
2024-03-11T02:12:15.909Z,7.72
2024-03-11T02:12:41.013Z,7.72
2024-03-11T02:13:06.330Z,7.72
2024-03-11T02:13:34.531Z,7.72
2024-03-11T02:14:07.924Z,7.72
2024-03-11T02:14:39.793Z,7.72
2024-03-11T02:15:10.549Z,7.72
2024-03-11T02:15:42.536Z,7.72
2024-03-11T02:16:14.529Z,7.72
2024-03-11T02:16:38.663Z,7.72
2024-03-11T02:17:00.962Z,7.72
2024-03-11T02:17:37.291Z,7.72
2024-03-11T02:18:06.693Z,7.61
2024-03-11T02:18:38.666Z,7.61
2024-03-11T02:19:10.241Z,7.61
2024-03-11T02:19:42.507Z,7.61
2024-03-11T02:20:15.773Z,7.61
2024-03-11T02:20:40.044Z,7.61
2024-03-11T02:21:01.041Z,7.61
2024-03-11T02:21:34.234Z,7.61
2024-03-11T02:22:06.530Z,7.61
2024-03-11T02:22:42.831Z,7.61
2024-03-11T02:23:10.484Z,7.61
2024-03-11T02:23:45.693Z,7.61
2024-03-11T02:24:14.555Z,7.50
2024-03-11T02:24:38.399Z,7.50
2024-03-11T02:24:59.876Z,7.50
2024-03-11T02:25:34.460Z,7.50
2024-03-11T02:26:06.276Z,7.50
2024-03-11T02:26:38.493Z,7.50
2024-03-11T02:27:10.996Z,7.50
2024-03-11T02:27:42.684Z,7.50
2024-03-11T02:28:14.404Z,7.50
2024-03-11T02:28:37.750Z,7.50
2024-03-11T02:29:01.326Z,7.50
2024-03-11T02:29:35.640Z,7.50
2024-03-11T02:30:12.201Z,7.50
2024-03-11T02:30:38.544Z,7.50
2024-03-11T02:31:10.846Z,7.50
2024-03-11T02:31:42.263Z,7.50
2024-03-11T02:33:04.092Z,7.50
2024-03-11T02:33:34.588Z,7.50
2024-03-11T02:34:06.275Z,7.50
2024-03-11T02:34:38.841Z,7.50
2024-03-11T02:35:13.298Z,7.50
2024-03-11T02:35:42.480Z,7.50
2024-03-11T02:36:15.166Z,7.50
2024-03-11T02:36:39.557Z,7.50
2024-03-11T02:37:01.976Z,7.50
2024-03-11T02:37:34.794Z,7.50
2024-03-11T02:38:06.461Z,7.50
2024-03-11T02:39:10.600Z,7.50
2024-03-11T02:39:43.923Z,7.50
2024-03-11T02:40:15.787Z,7.50
2024-03-11T02:40:37.178Z,7.50
2024-03-11T02:40:59.524Z,7.50
2024-03-11T02:41:34.522Z,7.50
2024-03-11T02:42:06.554Z,7.50
2024-03-11T02:42:42.728Z,7.50
2024-03-11T02:43:10.412Z,7.50
2024-03-11T02:43:47.635Z,7.50
2024-03-11T02:44:12.113Z,7.50
2024-03-11T02:44:41.097Z,7.50
2024-03-11T02:45:00.496Z,7.61
2024-03-11T02:45:38.946Z,7.61
2024-03-11T02:46:07.798Z,7.61
2024-03-11T02:46:33.274Z,7.61
2024-03-11T02:47:12.847Z,7.61
2024-03-11T02:47:47.137Z,7.50
2024-03-11T02:48:09.613Z,7.50
2024-03-11T02:48:35.391Z,7.50
2024-03-11T02:48:58.000Z,7.50
2024-03-11T02:49:35.938Z,7.50
2024-03-11T02:50:02.460Z,7.50
2024-03-11T02:50:40.972Z,7.50
2024-03-11T02:51:10.908Z,7.50
2024-03-11T02:51:42.681Z,7.50
2024-03-11T02:52:20.740Z,7.50
2024-03-11T02:52:43.252Z,7.50
2024-03-11T02:53:18.679Z,7.50
2024-03-11T02:53:46.232Z,7.50
2024-03-11T02:54:04.444Z,7.50
2024-03-11T02:54:38.561Z,7.50
2024-03-11T02:55:10.361Z,7.50
2024-03-11T02:55:42.516Z,7.50
2024-03-11T02:56:15.838Z,7.50
2024-03-11T02:56:39.283Z,7.50
2024-03-11T02:57:00.974Z,7.50
2024-03-11T02:57:34.664Z,7.50
2024-03-11T02:58:32.255Z,7.50
2024-03-11T02:59:12.925Z,7.50
2024-03-11T02:59:43.964Z,7.50
2024-03-11T03:00:24.830Z,7.50
2024-03-11T03:00:44.658Z,7.50
2024-03-11T03:01:03.450Z,7.50
2024-03-11T03:01:34.755Z,7.50
2024-03-11T03:02:45.735Z,7.50
2024-03-11T03:03:08.021Z,7.50
2024-03-11T03:03:46.602Z,7.38
2024-03-11T03:04:15.742Z,7.38
2024-03-11T03:04:39.304Z,7.38
2024-03-11T03:05:00.558Z,7.38
2024-03-11T03:05:34.628Z,7.38
2024-03-11T03:06:38.538Z,7.38
2024-03-11T03:07:42.901Z,7.38
2024-03-11T03:08:11.622Z,7.38
2024-03-11T03:08:40.204Z,7.38
2024-03-11T03:09:02.593Z,7.38
2024-03-11T03:09:34.389Z,7.38
2024-03-11T03:10:10.696Z,7.38
2024-03-11T03:10:38.484Z,7.38
2024-03-11T03:11:12.024Z,7.38
2024-03-11T03:11:42.947Z,7.38
2024-03-11T03:12:41.720Z,7.38
2024-03-11T03:13:00.217Z,7.38
2024-03-11T03:13:34.708Z,7.27
2024-03-11T03:14:06.701Z,7.27
2024-03-11T03:14:38.626Z,7.27
2024-03-11T03:15:12.411Z,7.27
2024-03-11T03:15:42.341Z,7.27
2024-03-11T03:16:15.783Z,7.27
2024-03-11T03:16:41.713Z,7.27
2024-03-11T03:16:59.865Z,7.22
2024-03-11T03:17:40.196Z,7.22
2024-03-11T03:18:11.965Z,7.22
2024-03-11T03:18:36.132Z,7.22
2024-03-11T03:19:10.588Z,7.22
2024-03-11T03:19:43.909Z,7.22
2024-03-11T03:20:15.982Z,7.22
2024-03-11T03:20:38.767Z,7.22
2024-03-11T03:21:01.971Z,7.22
2024-03-11T03:21:34.364Z,7.22
2024-03-11T03:22:14.083Z,7.22
2024-03-11T03:22:40.197Z,7.11
2024-03-11T03:23:11.384Z,7.11
2024-03-11T03:23:47.381Z,7.11
2024-03-11T03:24:14.844Z,7.11
2024-03-11T03:24:42.112Z,7.11
2024-03-11T03:25:01.121Z,7.11
2024-03-11T03:25:35.058Z,7.11
2024-03-11T03:26:06.595Z,7.11
2024-03-11T03:26:43.845Z,7.11
2024-03-11T03:27:49.268Z,7.11
2024-03-11T03:28:11.332Z,7.11
2024-03-11T03:28:35.621Z,7.11
2024-03-11T03:28:57.954Z,7.11
2024-03-11T03:29:34.801Z,7.11
2024-03-11T03:30:07.797Z,7.11
2024-03-11T03:30:38.405Z,7.11
2024-03-11T03:31:16.141Z,7.11
2024-03-11T03:31:46.615Z,7.11
2024-03-11T03:32:19.867Z,7.11
2024-03-11T03:32:43.489Z,7.11
2024-03-11T03:33:00.688Z,7.11
2024-03-11T03:33:34.394Z,7.11
2024-03-11T03:34:06.333Z,7.11
2024-03-11T03:34:39.722Z,7.11
2024-03-11T03:35:10.347Z,7.11
2024-03-11T03:35:42.379Z,7.11
2024-03-11T03:36:15.622Z,7.11
2024-03-11T03:36:37.962Z,7.11
2024-03-11T03:37:00.936Z,7.11
2024-03-11T03:38:06.720Z,7.00
2024-03-11T03:39:11.885Z,7.00
2024-03-11T03:39:42.876Z,7.00
2024-03-11T03:40:08.840Z,7.00
2024-03-11T03:40:41.540Z,7.00
2024-03-11T03:41:18.967Z,7.00
2024-03-11T03:41:41.170Z,7.00
2024-03-11T03:42:05.087Z,7.00
2024-03-11T03:43:10.941Z,7.00
2024-03-11T03:43:46.884Z,7.00
2024-03-11T03:44:13.496Z,7.00
2024-03-11T03:44:40.405Z,7.00
2024-03-11T03:45:04.225Z,7.00
2024-03-11T03:45:35.097Z,7.00
2024-03-11T03:46:06.585Z,7.00
2024-03-11T03:46:38.904Z,7.00
2024-03-11T03:47:49.244Z,6.88
2024-03-11T03:48:11.693Z,6.88
2024-03-11T03:48:44.759Z,6.88
2024-03-11T03:49:19.887Z,6.88
2024-03-11T03:49:42.133Z,6.88
2024-03-11T03:50:22.885Z,6.88
2024-03-11T03:50:46.274Z,6.88
2024-03-11T03:51:12.967Z,6.88
2024-03-11T03:51:43.258Z,6.88
2024-03-11T03:52:41.512Z,6.88
2024-03-11T03:52:59.588Z,6.88
2024-03-11T03:53:34.502Z,6.88
2024-03-11T03:54:06.623Z,6.88
2024-03-11T03:54:39.705Z,6.88
2024-03-11T03:55:10.513Z,6.88
2024-03-11T03:55:42.519Z,6.88
2024-03-11T03:56:15.833Z,6.88
2024-03-11T03:56:37.792Z,6.88
2024-03-11T03:57:01.308Z,6.88
2024-03-11T03:57:38.878Z,6.88
2024-03-11T03:58:06.485Z,6.88
2024-03-11T03:58:38.540Z,6.88
2024-03-11T03:59:10.450Z,6.88
2024-03-11T03:59:42.622Z,6.88
2024-03-11T04:00:11.422Z,6.88
2024-03-11T04:00:40.034Z,6.88
2024-03-11T04:01:19.869Z,6.77
2024-03-11T04:01:50.957Z,6.77
2024-03-11T04:02:29.530Z,6.77
2024-03-11T04:02:52.104Z,6.77
2024-03-11T04:03:26.542Z,6.77
2024-03-11T04:03:51.842Z,6.77
2024-03-11T04:04:13.949Z,6.77
2024-03-11T04:04:38.098Z,6.77
2024-03-11T04:05:00.546Z,6.77
2024-03-11T04:05:34.488Z,6.77
2024-03-11T04:06:06.363Z,6.77
2024-03-11T04:06:39.728Z,6.77
2024-03-11T04:07:10.701Z,6.77
2024-03-11T04:07:40.325Z,6.77
2024-03-11T04:08:18.526Z,6.77
2024-03-11T04:08:47.790Z,6.77
2024-03-11T04:09:18.542Z,6.77
2024-03-11T04:09:41.330Z,6.77
2024-03-11T04:10:07.761Z,6.77
2024-03-11T04:10:38.326Z,6.77
2024-03-11T04:11:11.538Z,6.77
2024-03-11T04:11:44.216Z,6.77
2024-03-11T04:12:21.484Z,6.77
2024-03-11T04:12:43.853Z,6.77
2024-03-11T04:13:18.234Z,6.77
2024-03-11T04:13:46.220Z,6.77
2024-03-11T04:14:04.183Z,6.77
2024-03-11T04:15:11.848Z,6.77
2024-03-11T04:15:42.496Z,6.77
2024-03-11T04:16:15.784Z,6.77
2024-03-11T04:16:37.239Z,6.77
2024-03-11T04:16:59.806Z,6.77
2024-03-11T04:17:29.337Z,6.77
2024-03-11T04:18:07.576Z,6.72
2024-03-11T04:18:39.874Z,6.72
2024-03-11T04:19:10.578Z,6.77
2024-03-11T04:19:49.830Z,6.72
2024-03-11T04:20:12.337Z,6.72
2024-03-11T04:20:35.384Z,6.72
2024-03-11T04:20:59.116Z,6.72
2024-03-11T04:21:34.626Z,6.72
2024-03-11T04:22:07.689Z,6.72
2024-03-11T04:23:11.199Z,6.72
2024-03-11T04:23:47.084Z,6.72
2024-03-11T04:24:14.280Z,6.72
2024-03-11T04:24:38.082Z,6.72
2024-03-11T04:25:00.520Z,6.72
2024-03-11T04:25:34.367Z,6.72
2024-03-11T04:26:01.321Z,6.72
2024-03-11T04:26:38.804Z,6.72
2024-03-11T04:27:16.057Z,6.72
2024-03-11T04:27:49.184Z,6.72
2024-03-11T04:28:10.264Z,6.72
2024-03-11T04:28:37.121Z,6.72
2024-03-11T04:28:58.326Z,6.72
2024-03-11T04:29:34.613Z,6.72
2024-03-11T04:30:07.795Z,6.72
2024-03-11T04:30:39.123Z,6.72
2024-03-11T04:31:15.618Z,6.72
2024-03-11T04:31:42.443Z,6.72
2024-03-11T04:32:15.881Z,6.72
2024-03-11T04:32:41.904Z,6.72
2024-03-11T04:33:00.304Z,6.72
2024-03-11T04:33:34.491Z,6.72
2024-03-11T04:34:06.442Z,6.72
2024-03-11T04:34:42.606Z,6.72
2024-03-11T04:35:14.781Z,6.72
2024-03-11T04:35:42.386Z,6.72
2024-03-11T04:36:15.932Z,6.72
2024-03-11T04:36:38.720Z,6.72
2024-03-11T04:37:01.329Z,6.72
2024-03-11T04:37:39.630Z,6.72
2024-03-11T04:38:06.439Z,6.72
2024-03-11T04:39:14.741Z,6.72
2024-03-11T04:39:42.536Z,6.72
2024-03-11T04:40:14.463Z,6.72
2024-03-11T04:40:36.825Z,6.72
2024-03-11T04:40:59.557Z,6.72
2024-03-11T04:41:28.663Z,6.72
2024-03-11T04:42:07.952Z,6.72
2024-03-11T04:42:40.798Z,6.72
2024-03-11T04:43:12.631Z,6.72
2024-03-11T04:43:46.825Z,6.72
2024-03-11T04:44:13.177Z,6.72
2024-03-11T04:44:36.948Z,6.72
2024-03-11T04:45:03.100Z,6.72
2024-03-11T04:45:34.939Z,6.72
2024-03-11T04:46:13.358Z,6.72
2024-03-11T04:46:46.735Z,6.72
2024-03-11T04:47:10.978Z,6.72
2024-03-11T04:47:47.581Z,6.72
2024-03-11T04:48:35.310Z,6.72
2024-03-11T04:48:56.564Z,6.72
2024-03-11T04:49:34.777Z,6.72
2024-03-11T04:50:07.735Z,6.72
2024-03-11T04:50:42.981Z,6.72
2024-03-11T04:51:27.625Z,6.72
2024-03-11T04:51:50.808Z,6.72
2024-03-11T04:52:42.303Z,6.72
2024-03-11T04:53:00.041Z,6.72
2024-03-11T04:53:34.336Z,6.72
2024-03-11T04:54:06.543Z,6.72
2024-03-11T04:54:43.620Z,6.72
2024-03-11T04:55:10.357Z,6.72
2024-03-11T04:55:42.352Z,6.72
2024-03-11T04:56:15.714Z,6.72
2024-03-11T04:56:41.266Z,6.72
2024-03-11T04:57:34.476Z,6.72
2024-03-11T04:58:06.352Z,6.72
2024-03-11T04:58:38.493Z,6.72
2024-03-11T04:59:10.222Z,6.72
2024-03-11T04:59:42.364Z,6.72
2024-03-11T05:00:16.670Z,6.72
2024-03-11T05:00:37.796Z,6.72
2024-03-11T05:00:59.700Z,6.72
2024-03-11T05:01:35.741Z,6.72
2024-03-11T05:02:07.730Z,6.72
2024-03-11T05:02:46.157Z,6.72
2024-03-11T05:03:10.346Z,6.72
2024-03-11T05:03:46.702Z,6.72
2024-03-11T05:04:14.265Z,6.72
2024-03-11T05:04:38.553Z,6.72
2024-03-11T05:05:04.024Z,6.72
2024-03-11T05:05:34.544Z,6.72
2024-03-11T05:06:06.496Z,6.72
2024-03-11T05:06:38.372Z,6.72
2024-03-11T05:07:11.730Z,6.72
2024-03-11T05:07:42.620Z,6.72
2024-03-11T05:08:18.695Z,6.72
2024-03-11T05:08:39.576Z,6.72
2024-03-11T05:09:02.246Z,6.72
2024-03-11T05:09:34.357Z,6.72
2024-03-11T05:10:06.503Z,6.72
2024-03-11T05:10:38.144Z,6.72
2024-03-11T05:11:10.533Z,6.72
2024-03-11T05:11:42.459Z,6.72
2024-03-11T05:12:15.749Z,6.72
2024-03-11T05:12:42.021Z,6.72
2024-03-11T05:13:02.307Z,6.72
2024-03-11T05:13:35.826Z,6.72
2024-03-11T05:14:07.504Z,6.72
2024-03-11T05:14:47.607Z,6.72
2024-03-11T05:15:15.322Z,6.72
2024-03-11T05:15:42.634Z,6.72
2024-03-11T05:16:14.572Z,6.72
2024-03-11T05:16:37.111Z,6.72
2024-03-11T05:17:00.160Z,6.72
2024-03-11T05:17:34.748Z,6.72
2024-03-11T05:18:08.075Z,6.72
2024-03-11T05:18:38.555Z,6.72
2024-03-11T05:19:11.633Z,6.72
2024-03-11T05:19:42.413Z,6.72
2024-03-11T05:20:15.206Z,6.72
2024-03-11T05:20:37.777Z,6.72
2024-03-11T05:21:00.564Z,6.72
2024-03-11T05:21:42.340Z,6.72
2024-03-11T05:22:09.186Z,6.72
2024-03-11T05:22:40.458Z,6.72
2024-03-11T05:23:11.852Z,6.72
2024-03-11T05:23:45.290Z,6.72
2024-03-11T05:24:14.461Z,6.72
2024-03-11T05:24:38.396Z,6.72
2024-03-11T05:25:00.131Z,6.72
2024-03-11T05:25:34.443Z,6.72
2024-03-11T05:26:06.663Z,6.72
2024-03-11T05:26:39.706Z,6.72
2024-03-11T05:27:11.905Z,6.72
2024-03-11T05:27:48.525Z,6.72
2024-03-11T05:28:09.913Z,6.72
2024-03-11T05:28:41.855Z,6.72
2024-03-11T05:29:18.585Z,6.72
2024-03-11T05:29:42.535Z,6.72
2024-03-11T05:30:04.221Z,6.72
2024-03-11T05:30:38.309Z,6.72
2024-03-11T05:31:11.621Z,6.72
2024-03-11T05:31:42.352Z,6.72
2024-03-11T05:32:40.364Z,6.72
2024-03-11T05:33:01.240Z,6.72
2024-03-11T05:33:38.727Z,6.72
2024-03-11T05:34:06.471Z,6.72
2024-03-11T05:34:42.745Z,6.72
2024-03-11T05:35:14.731Z,6.72
2024-03-11T05:35:42.484Z,6.72
2024-03-11T05:36:14.507Z,6.72
2024-03-11T05:36:38.488Z,6.72
2024-03-11T05:37:01.317Z,6.72
2024-03-11T05:37:40.691Z,6.72
2024-03-11T05:38:07.785Z,6.72
2024-03-11T05:38:38.579Z,6.72
2024-03-11T05:39:10.180Z,6.72
2024-03-11T05:39:42.752Z,6.72
2024-03-11T05:40:12.360Z,6.72
2024-03-11T05:40:40.414Z,6.72
2024-03-11T05:41:24.771Z,6.72
2024-03-11T05:41:47.289Z,6.72
2024-03-11T05:42:43.065Z,6.72
2024-03-11T05:43:11.806Z,6.72
2024-03-11T05:43:38.263Z,6.72
2024-03-11T05:44:13.680Z,6.72
2024-03-11T05:44:36.240Z,6.72
2024-03-11T05:45:03.144Z,6.72
2024-03-11T05:45:34.822Z,6.72
2024-03-11T05:46:07.323Z,6.72
2024-03-11T05:46:38.997Z,6.72
2024-03-11T05:47:12.045Z,6.72
2024-03-11T05:47:49.430Z,6.72
2024-03-11T05:48:11.636Z,6.72
2024-03-11T05:48:35.445Z,6.72
2024-03-11T05:48:56.787Z,6.72
2024-03-11T05:49:34.421Z,6.72
2024-03-11T05:50:38.383Z,6.72
2024-03-11T05:51:10.328Z,6.72
2024-03-11T05:51:42.436Z,6.72
2024-03-11T05:52:41.015Z,6.72
2024-03-11T05:53:03.483Z,6.72
2024-03-11T05:53:34.508Z,6.72
2024-03-11T05:54:06.635Z,6.72
2024-03-11T05:54:39.762Z,6.72
2024-03-11T05:55:12.066Z,6.72
2024-03-11T05:55:42.761Z,6.72
2024-03-11T05:56:15.796Z,6.72
2024-03-11T05:56:37.755Z,6.72
2024-03-11T05:57:00.291Z,6.72
2024-03-11T05:57:28.911Z,6.72
2024-03-11T05:58:08.320Z,6.72
2024-03-11T05:58:39.603Z,6.72
2024-03-11T05:59:11.552Z,6.72
2024-03-11T05:59:43.081Z,6.72
2024-03-11T06:00:19.110Z,6.72
2024-03-11T06:00:37.763Z,6.72
2024-03-11T06:01:00.227Z,6.72
2024-03-11T06:01:34.564Z,6.72
2024-03-11T06:02:06.862Z,6.72
2024-03-11T06:02:43.207Z,6.72
2024-03-11T06:03:11.151Z,6.72
2024-03-11T06:03:46.884Z,6.72
2024-03-11T06:04:20.415Z,6.72
2024-03-11T06:04:42.641Z,6.72
2024-03-11T06:05:18.792Z,6.72
2024-03-11T06:05:43.106Z,6.72
2024-03-11T06:06:08.253Z,6.72
2024-03-11T06:06:39.627Z,6.72
2024-03-11T06:07:12.350Z,6.72
2024-03-11T06:07:40.555Z,6.72
2024-03-11T06:08:17.069Z,6.72
2024-03-11T06:08:39.242Z,6.72
2024-03-11T06:09:01.605Z,6.72
2024-03-11T06:09:34.830Z,6.72
2024-03-11T06:10:06.745Z,6.72
2024-03-11T06:10:43.609Z,6.72
2024-03-11T06:11:06.353Z,6.72
2024-03-11T06:11:44.069Z,6.72
2024-03-11T06:12:41.621Z,6.72
2024-03-11T06:12:59.618Z,6.72
2024-03-11T06:13:34.457Z,6.72
2024-03-11T06:14:06.441Z,6.72
2024-03-11T06:14:42.855Z,6.72
2024-03-11T06:15:14.696Z,6.72
2024-03-11T06:15:42.452Z,6.72
2024-03-11T06:16:15.716Z,6.72
2024-03-11T06:16:37.996Z,6.72
2024-03-11T06:17:03.599Z,6.72
2024-03-11T06:17:34.605Z,6.72
2024-03-11T06:18:11.793Z,6.72
2024-03-11T06:18:38.409Z,6.72
2024-03-11T06:19:15.610Z,6.72
2024-03-11T06:19:43.435Z,6.72
2024-03-11T06:20:14.473Z,6.72
2024-03-11T06:20:38.996Z,6.72
2024-03-11T06:21:01.225Z,6.72
2024-03-11T06:21:34.435Z,6.72
2024-03-11T06:22:06.492Z,6.72
2024-03-11T06:23:10.358Z,6.72
2024-03-11T06:23:46.698Z,6.72
2024-03-11T06:24:14.365Z,6.77
2024-03-11T06:24:37.310Z,6.77
2024-03-11T06:25:01.047Z,6.77
2024-03-11T06:25:34.191Z,6.77
2024-03-11T06:26:00.760Z,6.77
2024-03-11T06:26:39.193Z,6.77
2024-03-11T06:27:13.598Z,6.77
2024-03-11T06:27:51.731Z,6.77
2024-03-11T06:28:10.015Z,6.77
2024-03-11T06:28:34.459Z,6.77
2024-03-11T06:28:57.108Z,6.77
2024-03-11T06:29:36.005Z,6.77
2024-03-11T06:30:08.709Z,6.77
2024-03-11T06:30:38.321Z,6.77
2024-03-11T06:31:17.995Z,6.77
2024-03-11T06:31:42.433Z,6.77
2024-03-11T06:32:40.655Z,6.77
2024-03-11T06:33:21.257Z,6.77
2024-03-11T06:33:53.836Z,6.77
2024-03-11T06:34:24.681Z,6.77
2024-03-11T06:34:56.201Z,6.77
2024-03-11T06:35:28.256Z,6.77
2024-03-11T06:35:50.898Z,6.77
2024-03-11T06:36:15.265Z,6.77
2024-03-11T06:36:34.717Z,6.77
2024-03-11T06:36:59.627Z,6.77
2024-03-11T06:37:41.021Z,6.77
2024-03-11T06:38:03.590Z,6.77
2024-03-11T06:38:38.910Z,6.77
2024-03-11T06:39:11.669Z,6.77
2024-03-11T06:39:42.434Z,6.77
2024-03-11T06:40:10.087Z,6.77
2024-03-11T06:40:40.241Z,6.77
2024-03-11T06:41:20.131Z,6.77
2024-03-11T06:41:44.485Z,6.77
2024-03-11T06:42:05.690Z,6.77
2024-03-11T06:42:41.694Z,6.77
2024-03-11T06:43:11.355Z,6.77
2024-03-11T06:43:45.473Z,6.77
2024-03-11T06:44:18.083Z,6.77
2024-03-11T06:44:40.511Z,6.77
2024-03-11T06:45:02.476Z,6.77
2024-03-11T06:45:34.686Z,6.77
2024-03-11T06:46:06.530Z,6.77
2024-03-11T06:46:38.907Z,6.77
2024-03-11T06:47:16.912Z,6.77
2024-03-11T06:47:49.093Z,6.77
2024-03-11T06:48:12.882Z,6.77
2024-03-11T06:48:36.526Z,6.77
2024-03-11T06:48:58.045Z,6.77
2024-03-11T06:49:34.564Z,6.77
2024-03-11T06:50:06.426Z,6.77
2024-03-11T06:50:38.967Z,6.77
2024-03-11T06:51:10.231Z,6.77
2024-03-11T06:51:42.518Z,6.77
2024-03-11T06:52:19.681Z,6.77
2024-03-11T06:52:41.505Z,6.77
2024-03-11T06:53:20.294Z,6.77
2024-03-11T06:53:41.301Z,6.77
2024-03-11T06:54:04.042Z,6.77
2024-03-11T06:54:42.866Z,6.77
2024-03-11T06:55:15.485Z,6.77
2024-03-11T06:55:42.478Z,6.77
2024-03-11T06:56:15.522Z,6.77
2024-03-11T06:56:37.926Z,6.77
2024-03-11T06:57:02.592Z,6.88
2024-03-11T06:57:39.821Z,6.88
2024-03-11T06:58:00.805Z,6.88
2024-03-11T06:58:38.650Z,6.88
2024-03-11T06:59:11.838Z,6.88
2024-03-11T06:59:42.456Z,6.88
2024-03-11T07:00:14.026Z,6.88
2024-03-11T07:00:33.803Z,6.88
2024-03-11T07:00:57.633Z,6.88
2024-03-11T07:01:35.230Z,6.88
2024-03-11T07:02:09.180Z,6.88
2024-03-11T07:02:51.011Z,6.88
2024-03-11T07:03:31.364Z,6.88
2024-03-11T07:03:49.652Z,6.88
2024-03-11T07:04:15.470Z,6.88
2024-03-11T07:04:37.824Z,6.88